sensor_id;sensor_type;location;lat;lon;timestamp;pressure;altitude;pressure_sealevel;temperature;humidity
46412;BME280;32113;42.012;24.870;2023-07-22T00:01:04;98804.41;;;29.90;45.61
46412;BME280;32113;42.012;24.870;2023-07-22T00:03:29;98800.97;;;29.80;46.14
46412;BME280;32113;42.012;24.870;2023-07-22T00:08:29;98789.06;;;29.66;46.51
46412;BME280;32113;42.012;24.870;2023-07-22T00:10:54;98786.94;;;29.70;46.89
46412;BME280;32113;42.012;24.870;2023-07-22T00:13:19;98790.72;;;29.67;47.25
46412;BME280;32113;42.012;24.870;2023-07-22T00:15:45;98785.03;;;29.62;47.37
46412;BME280;32113;42.012;24.870;2023-07-22T00:18:10;98792.56;;;29.57;47.37
46412;BME280;32113;42.012;24.870;2023-07-22T00:20:35;98791.06;;;29.54;47.63
46412;BME280;32113;42.012;24.870;2023-07-22T00:23:01;98792.19;;;29.52;47.27
46412;BME280;32113;42.012;24.870;2023-07-22T00:25:26;98791.19;;;29.53;46.98
46412;BME280;32113;42.012;24.870;2023-07-22T00:27:51;98783.41;;;29.51;47.06
46412;BME280;32113;42.012;24.870;2023-07-22T00:30:16;98788.97;;;29.48;46.97
46412;BME280;32113;42.012;24.870;2023-07-22T00:32:42;98784.66;;;29.47;46.98
46412;BME280;32113;42.012;24.870;2023-07-22T00:35:08;98791.34;;;29.41;47.23
46412;BME280;32113;42.012;24.870;2023-07-22T00:37:34;98786.50;;;29.36;47.63
46412;BME280;32113;42.012;24.870;2023-07-22T00:40:00;98791.78;;;29.36;47.67
46412;BME280;32113;42.012;24.870;2023-07-22T00:42:26;98792.50;;;29.29;47.85
46412;BME280;32113;42.012;24.870;2023-07-22T00:44:51;98803.50;;;29.24;47.69
46412;BME280;32113;42.012;24.870;2023-07-22T00:47:16;98799.75;;;29.27;47.80
46412;BME280;32113;42.012;24.870;2023-07-22T00:49:42;98803.09;;;29.19;48.08
46412;BME280;32113;42.012;24.870;2023-07-22T00:52:08;98809.06;;;29.21;48.67
46412;BME280;32113;42.012;24.870;2023-07-22T00:54:33;98804.50;;;29.13;49.13
46412;BME280;32113;42.012;24.870;2023-07-22T00:56:58;98807.00;;;29.15;49.40
46412;BME280;32113;42.012;24.870;2023-07-22T00:59:24;98810.88;;;29.10;49.50
46412;BME280;32113;42.012;24.870;2023-07-22T01:01:49;98809.91;;;29.02;49.93
46412;BME280;32113;42.012;24.870;2023-07-22T01:04:15;98824.94;;;29.01;49.88
46412;BME280;32113;42.012;24.870;2023-07-22T01:06:42;98826.88;;;28.99;50.25
46412;BME280;32113;42.012;24.870;2023-07-22T01:09:07;98842.31;;;28.94;50.26
46412;BME280;32113;42.012;24.870;2023-07-22T01:11:34;98850.22;;;28.94;50.50
46412;BME280;32113;42.012;24.870;2023-07-22T01:13:59;98848.28;;;28.96;50.57
46412;BME280;32113;42.012;24.870;2023-07-22T01:16:28;98841.50;;;28.93;50.50
46412;BME280;32113;42.012;24.870;2023-07-22T01:18:53;98838.00;;;28.83;50.91
46412;BME280;32113;42.012;24.870;2023-07-22T01:21:19;98839.59;;;28.44;52.41
46412;BME280;32113;42.012;24.870;2023-07-22T01:23:46;98828.63;;;28.29;52.49
46412;BME280;32113;42.012;24.870;2023-07-22T01:26:12;98840.47;;;28.14;53.02
46412;BME280;32113;42.012;24.870;2023-07-22T01:28:37;98841.16;;;28.06;53.53
46412;BME280;32113;42.012;24.870;2023-07-22T01:31:03;98837.41;;;27.99;53.72
46412;BME280;32113;42.012;24.870;2023-07-22T01:33:30;98828.25;;;28.03;53.78
46412;BME280;32113;42.012;24.870;2023-07-22T01:35:55;98824.34;;;28.07;53.55
46412;BME280;32113;42.012;24.870;2023-07-22T01:38:20;98831.75;;;28.13;53.37
46412;BME280;32113;42.012;24.870;2023-07-22T01:40:46;98822.44;;;28.19;53.18
46412;BME280;32113;42.012;24.870;2023-07-22T01:43:11;98833.44;;;28.24;53.11
46412;BME280;32113;42.012;24.870;2023-07-22T01:45:36;98840.00;;;28.30;52.87
46412;BME280;32113;42.012;24.870;2023-07-22T01:48:03;98839.00;;;28.31;52.96
46412;BME280;32113;42.012;24.870;2023-07-22T01:50:28;98835.13;;;28.35;52.88
46412;BME280;32113;42.012;24.870;2023-07-22T01:52:54;98833.63;;;28.42;52.67
46412;BME280;32113;42.012;24.870;2023-07-22T01:55:19;98833.34;;;28.36;52.69
46412;BME280;32113;42.012;24.870;2023-07-22T01:57:44;98835.56;;;28.30;52.87
46412;BME280;32113;42.012;24.870;2023-07-22T02:00:10;98850.41;;;28.31;52.20
46412;BME280;32113;42.012;24.870;2023-07-22T02:02:40;98848.75;;;28.30;52.43
46412;BME280;32113;42.012;24.870;2023-07-22T02:05:05;98855.00;;;28.29;52.29
46412;BME280;32113;42.012;24.870;2023-07-22T02:07:31;98856.94;;;28.27;52.25
46412;BME280;32113;42.012;24.870;2023-07-22T02:09:56;98860.84;;;28.33;52.07
46412;BME280;32113;42.012;24.870;2023-07-22T02:12:21;98857.22;;;28.34;52.03
46412;BME280;32113;42.012;24.870;2023-07-22T02:14:46;98849.44;;;28.32;52.22
46412;BME280;32113;42.012;24.870;2023-07-22T02:17:12;98852.78;;;28.35;51.95
46412;BME280;32113;42.012;24.870;2023-07-22T02:19:37;98858.75;;;28.37;52.04
46412;BME280;32113;42.012;24.870;2023-07-22T02:22:03;98867.22;;;28.40;52.18
46412;BME280;32113;42.012;24.870;2023-07-22T02:24:29;98858.34;;;28.41;52.18
46412;BME280;32113;42.012;24.870;2023-07-22T02:26:54;98857.22;;;28.34;52.27
46412;BME280;32113;42.012;24.870;2023-07-22T02:29:20;98845.69;;;28.35;52.10
46412;BME280;32113;42.012;24.870;2023-07-22T02:31:45;98847.50;;;28.35;52.09
46412;BME280;32113;42.012;24.870;2023-07-22T02:34:11;98848.88;;;28.29;52.24
46412;BME280;32113;42.012;24.870;2023-07-22T02:36:36;98852.03;;;28.23;52.68
46412;BME280;32113;42.012;24.870;2023-07-22T02:39:02;98850.97;;;28.25;52.75
46412;BME280;32113;42.012;24.870;2023-07-22T02:41:28;98855.00;;;28.29;52.55
46412;BME280;32113;42.012;24.870;2023-07-22T02:43:53;98857.22;;;28.34;52.33
46412;BME280;32113;42.012;24.870;2023-07-22T02:46:18;98858.47;;;28.30;52.55
46412;BME280;32113;42.012;24.870;2023-07-22T02:48:44;98867.72;;;28.24;52.63
46412;BME280;32113;42.012;24.870;2023-07-22T02:51:09;98866.47;;;28.18;52.86
46412;BME280;32113;42.012;24.870;2023-07-22T02:53:38;98860.75;;;28.23;52.67
46412;BME280;32113;42.012;24.870;2023-07-22T02:56:06;98859.38;;;28.19;52.78
46412;BME280;32113;42.012;24.870;2023-07-22T02:58:36;98867.72;;;28.24;52.72
46412;BME280;32113;42.012;24.870;2023-07-22T03:01:02;98863.41;;;28.23;52.88
46412;BME280;32113;42.012;24.870;2023-07-22T03:03:28;98850.34;;;28.22;52.73
46412;BME280;32113;42.012;24.870;2023-07-22T03:05:53;98860.34;;;28.18;53.11
46412;BME280;32113;42.012;24.870;2023-07-22T03:08:18;98857.00;;;28.16;53.04
46412;BME280;32113;42.012;24.870;2023-07-22T03:10:44;98862.41;;;28.14;52.77
46412;BME280;32113;42.012;24.870;2023-07-22T03:13:16;98862.13;;;28.07;53.23
46412;BME280;32113;42.012;24.870;2023-07-22T03:15:42;98858.63;;;28.07;53.01
46412;BME280;32113;42.012;24.870;2023-07-22T03:18:07;98858.88;;;27.94;53.29
46412;BME280;32113;42.012;24.870;2023-07-22T03:20:35;98859.78;;;27.83;53.48
46412;BME280;32113;42.012;24.870;2023-07-22T03:23:00;98863.84;;;27.87;53.17
46412;BME280;32113;42.012;24.870;2023-07-22T03:25:25;98858.19;;;27.92;53.32
46412;BME280;32113;42.012;24.870;2023-07-22T03:27:51;98856.06;;;27.86;53.47
46412;BME280;32113;42.012;24.870;2023-07-22T03:30:16;98857.69;;;27.77;53.88
46412;BME280;32113;42.012;24.870;2023-07-22T03:32:45;98854.94;;;27.78;53.94
46412;BME280;32113;42.012;24.870;2023-07-22T03:35:12;98861.00;;;27.79;54.00
46412;BME280;32113;42.012;24.870;2023-07-22T03:37:38;98849.34;;;27.72;53.95
46412;BME280;32113;42.012;24.870;2023-07-22T03:40:04;98848.19;;;27.64;54.38
46412;BME280;32113;42.012;24.870;2023-07-22T03:42:36;98850.31;;;27.71;54.11
46412;BME280;32113;42.012;24.870;2023-07-22T03:45:01;98851.41;;;27.68;54.38
46412;BME280;32113;42.012;24.870;2023-07-22T03:47:26;98849.28;;;27.62;53.95
46412;BME280;32113;42.012;24.870;2023-07-22T03:49:52;98850.00;;;27.64;54.04
46412;BME280;32113;42.012;24.870;2023-07-22T03:52:17;98851.91;;;27.62;54.03
46412;BME280;32113;42.012;24.870;2023-07-22T03:54:43;98853.34;;;27.66;54.04
46412;BME280;32113;42.012;24.870;2023-07-22T03:57:08;98854.06;;;27.68;54.12
46412;BME280;32113;42.012;24.870;2023-07-22T03:59:34;98850.34;;;27.80;53.52
46412;BME280;32113;42.012;24.870;2023-07-22T04:01:59;98861.19;;;27.87;53.70
46412;BME280;32113;42.012;24.870;2023-07-22T04:04:24;98859.97;;;27.91;53.50
46412;BME280;32113;42.012;24.870;2023-07-22T04:06:49;98866.53;;;27.97;53.16
46412;BME280;32113;42.012;24.870;2023-07-22T04:09:15;98872.22;;;28.02;53.12
46412;BME280;32113;42.012;24.870;2023-07-22T04:11:40;98865.59;;;28.08;52.97
46412;BME280;32113;42.012;24.870;2023-07-22T04:14:05;98871.44;;;28.12;52.92
46412;BME280;32113;42.012;24.870;2023-07-22T04:16:30;98872.97;;;28.14;52.93
46412;BME280;32113;42.012;24.870;2023-07-22T04:18:56;98873.81;;;28.15;53.11
46412;BME280;32113;42.012;24.870;2023-07-22T04:21:21;98876.44;;;28.15;53.16
46412;BME280;32113;42.012;24.870;2023-07-22T04:23:47;98879.91;;;28.15;53.09
46412;BME280;32113;42.012;24.870;2023-07-22T04:26:12;98879.91;;;28.15;53.41
46412;BME280;32113;42.012;24.870;2023-07-22T04:28:37;98883.81;;;28.21;53.39
46412;BME280;32113;42.012;24.870;2023-07-22T04:31:03;98882.72;;;28.24;53.18
46412;BME280;32113;42.012;24.870;2023-07-22T04:33:29;98881.06;;;28.23;53.19
46412;BME280;32113;42.012;24.870;2023-07-22T04:35:55;98882.47;;;28.27;53.37
46412;BME280;32113;42.012;24.870;2023-07-22T04:38:21;98883.03;;;28.30;53.45
46412;BME280;32113;42.012;24.870;2023-07-22T04:40:46;98877.50;;;28.33;53.48
46412;BME280;32113;42.012;24.870;2023-07-22T04:43:11;98886.38;;;28.32;53.88
46412;BME280;32113;42.012;24.870;2023-07-22T04:45:37;98884.56;;;28.33;53.97
46412;BME280;32113;42.012;24.870;2023-07-22T04:48:05;98887.91;;;28.35;54.42
46412;BME280;32113;42.012;24.870;2023-07-22T04:50:30;98878.63;;;28.41;54.34
46412;BME280;32113;42.012;24.870;2023-07-22T04:52:56;98891.25;;;28.47;54.31
46412;BME280;32113;42.012;24.870;2023-07-22T04:55:21;98891.13;;;28.49;54.75
46412;BME280;32113;42.012;24.870;2023-07-22T04:57:46;98900.88;;;28.48;54.86
46412;BME280;32113;42.012;24.870;2023-07-22T05:00:12;98902.53;;;28.49;54.94
46412;BME280;32113;42.012;24.870;2023-07-22T05:02:41;98896.97;;;28.52;54.86
46412;BME280;32113;42.012;24.870;2023-07-22T05:05:07;98899.91;;;28.59;54.88
46412;BME280;32113;42.012;24.870;2023-07-22T05:07:34;98906.34;;;28.76;54.69
46412;BME280;32113;42.012;24.870;2023-07-22T05:09:59;98897.59;;;28.95;54.28
46412;BME280;32113;42.012;24.870;2023-07-22T05:12:25;98892.75;;;29.10;53.53
46412;BME280;32113;42.012;24.870;2023-07-22T05:14:50;98892.31;;;29.25;53.13
46412;BME280;32113;42.012;24.870;2023-07-22T05:17:15;98887.59;;;29.38;51.93
46412;BME280;32113;42.012;24.870;2023-07-22T05:19:40;98886.59;;;29.49;50.86
46412;BME280;32113;42.012;24.870;2023-07-22T05:22:06;98888.16;;;29.52;50.57
46412;BME280;32113;42.012;24.870;2023-07-22T05:24:32;98885.06;;;29.67;50.29
46412;BME280;32113;42.012;24.870;2023-07-22T05:26:57;98888.38;;;29.69;49.91
46412;BME280;32113;42.012;24.870;2023-07-22T05:29:22;98886.38;;;29.81;49.15
46412;BME280;32113;42.012;24.870;2023-07-22T05:31:48;98875.09;;;29.88;48.98
46412;BME280;32113;42.012;24.870;2023-07-22T05:34:13;98868.13;;;29.97;48.94
46412;BME280;32113;42.012;24.870;2023-07-22T05:36:39;98871.53;;;30.08;48.69
46412;BME280;32113;42.012;24.870;2023-07-22T05:39:04;98870.03;;;30.15;48.50
46412;BME280;32113;42.012;24.870;2023-07-22T05:41:29;98879.28;;;30.19;48.59
46412;BME280;32113;42.012;24.870;2023-07-22T05:43:55;98884.16;;;30.24;48.44
46412;BME280;32113;42.012;24.870;2023-07-22T05:46:20;98886.91;;;30.32;47.94
46412;BME280;32113;42.012;24.870;2023-07-22T05:48:45;98894.47;;;30.27;47.84
46412;BME280;32113;42.012;24.870;2023-07-22T05:51:10;98893.34;;;30.29;47.62
46412;BME280;32113;42.012;24.870;2023-07-22T05:53:36;98887.34;;;30.27;47.65
46412;BME280;32113;42.012;24.870;2023-07-22T05:56:01;98885.91;;;30.33;48.15
46412;BME280;32113;42.012;24.870;2023-07-22T05:58:26;98887.72;;;30.33;48.01
46412;BME280;32113;42.012;24.870;2023-07-22T06:00:53;98879.94;;;30.31;48.67
46412;BME280;32113;42.012;24.870;2023-07-22T06:03:18;98884.84;;;30.26;48.03
46412;BME280;32113;42.012;24.870;2023-07-22T06:05:44;98884.31;;;30.22;47.91
46412;BME280;32113;42.012;24.870;2023-07-22T06:08:09;98881.38;;;30.25;48.23
46412;BME280;32113;42.012;24.870;2023-07-22T06:10:34;98878.91;;;30.14;48.26
46412;BME280;32113;42.012;24.870;2023-07-22T06:13:02;98878.81;;;30.06;48.82
46412;BME280;32113;42.012;24.870;2023-07-22T06:15:28;98884.50;;;30.01;48.82
46412;BME280;32113;42.012;24.870;2023-07-22T06:17:53;98879.38;;;29.99;48.83
46412;BME280;32113;42.012;24.870;2023-07-22T06:20:18;98877.97;;;29.95;49.44
46412;BME280;32113;42.012;24.870;2023-07-22T06:22:44;98877.28;;;30.03;49.48
46412;BME280;32113;42.012;24.870;2023-07-22T06:25:09;98871.13;;;30.12;49.14
46412;BME280;32113;42.012;24.870;2023-07-22T06:27:34;98879.47;;;30.18;48.58
46412;BME280;32113;42.012;24.870;2023-07-22T06:30:00;98875.13;;;30.16;48.74
46412;BME280;32113;42.012;24.870;2023-07-22T06:32:25;98877.50;;;30.20;48.64
46412;BME280;32113;42.012;24.870;2023-07-22T06:34:51;98871.22;;;30.21;48.40
46412;BME280;32113;42.012;24.870;2023-07-22T06:37:16;98868.28;;;30.24;48.86
46412;BME280;32113;42.012;24.870;2023-07-22T06:39:41;98864.22;;;30.29;48.35
46412;BME280;32113;42.012;24.870;2023-07-22T06:42:06;98866.03;;;30.29;48.58
46412;BME280;32113;42.012;24.870;2023-07-22T06:44:32;98871.34;;;30.19;48.38
46412;BME280;32113;42.012;24.870;2023-07-22T06:46:57;98873.88;;;30.21;48.84
46412;BME280;32113;42.012;24.870;2023-07-22T06:49:22;98874.47;;;30.14;48.31
46412;BME280;32113;42.012;24.870;2023-07-22T06:51:48;98880.44;;;30.16;49.06
46412;BME280;32113;42.012;24.870;2023-07-22T06:54:13;98877.22;;;30.23;49.12
46412;BME280;32113;42.012;24.870;2023-07-22T06:56:39;98882.28;;;30.34;48.32
46412;BME280;32113;42.012;24.870;2023-07-22T06:59:04;98882.00;;;30.37;48.50
46412;BME280;32113;42.012;24.870;2023-07-22T07:01:29;98881.84;;;30.39;48.79
46412;BME280;32113;42.012;24.870;2023-07-22T07:03:54;98896.84;;;30.48;48.40
46412;BME280;32113;42.012;24.870;2023-07-22T07:06:20;98888.31;;;30.54;48.55
46412;BME280;32113;42.012;24.870;2023-07-22T07:08:45;98890.06;;;30.64;47.78
46412;BME280;32113;42.012;24.870;2023-07-22T07:11:10;98898.78;;;30.74;48.06
46412;BME280;32113;42.012;24.870;2023-07-22T07:13:35;98898.34;;;30.79;48.03
46412;BME280;32113;42.012;24.870;2023-07-22T07:16:19;98894.63;;;30.90;47.58
46412;BME280;32113;42.012;24.870;2023-07-22T07:18:45;98893.72;;;30.99;47.26
46412;BME280;32113;42.012;24.870;2023-07-22T07:21:10;98889.19;;;31.10;46.83
46412;BME280;32113;42.012;24.870;2023-07-22T07:23:35;98882.84;;;31.29;46.10
46412;BME280;32113;42.012;24.870;2023-07-22T07:26:01;98884.69;;;31.46;45.69
46412;BME280;32113;42.012;24.870;2023-07-22T07:28:27;98889.25;;;31.63;46.04
46412;BME280;32113;42.012;24.870;2023-07-22T07:30:52;98885.22;;;31.85;45.16
46412;BME280;32113;42.012;24.870;2023-07-22T07:33:17;98882.88;;;32.08;44.32
46412;BME280;32113;42.012;24.870;2023-07-22T07:35:45;98876.97;;;32.23;43.68
46412;BME280;32113;42.012;24.870;2023-07-22T07:38:10;98876.00;;;32.32;43.85
46412;BME280;32113;42.012;24.870;2023-07-22T07:40:36;98872.75;;;32.47;43.68
46412;BME280;32113;42.012;24.870;2023-07-22T07:43:01;98874.28;;;32.58;43.08
46412;BME280;32113;42.012;24.870;2023-07-22T07:45:26;98873.09;;;32.69;42.94
46412;BME280;32113;42.012;24.870;2023-07-22T07:47:52;98877.44;;;32.86;42.86
46412;BME280;32113;42.012;24.870;2023-07-22T07:50:17;98878.09;;;32.97;42.84
46412;BME280;32113;42.012;24.870;2023-07-22T07:52:42;98880.28;;;33.18;41.82
46412;BME280;32113;42.012;24.870;2023-07-22T07:55:07;98877.09;;;33.39;41.74
46412;BME280;32113;42.012;24.870;2023-07-22T07:57:33;98875.94;;;33.59;41.30
46412;BME280;32113;42.012;24.870;2023-07-22T07:59:58;98875.94;;;33.75;41.09
46412;BME280;32113;42.012;24.870;2023-07-22T08:02:23;98877.88;;;33.90;40.69
46412;BME280;32113;42.012;24.870;2023-07-22T08:04:48;98874.44;;;34.13;39.88
46412;BME280;32113;42.012;24.870;2023-07-22T08:07:15;98872.91;;;34.27;39.30
46412;BME280;32113;42.012;24.870;2023-07-22T08:09:40;98879.00;;;34.36;39.56
46412;BME280;32113;42.012;24.870;2023-07-22T08:12:06;98879.94;;;34.51;39.39
46412;BME280;32113;42.012;24.870;2023-07-22T08:14:33;98875.69;;;34.65;38.12
46412;BME280;32113;42.012;24.870;2023-07-22T08:16:58;98877.59;;;34.80;38.67
46412;BME280;32113;42.012;24.870;2023-07-22T08:19:23;98879.84;;;34.91;37.72
46412;BME280;32113;42.012;24.870;2023-07-22T08:21:49;98880.59;;;35.00;38.38
46412;BME280;32113;42.012;24.870;2023-07-22T08:24:14;98878.47;;;35.19;37.70
46412;BME280;32113;42.012;24.870;2023-07-22T08:26:39;98874.81;;;35.35;38.08
46412;BME280;32113;42.012;24.870;2023-07-22T08:29:04;98882.47;;;35.38;37.68
46412;BME280;32113;42.012;24.870;2023-07-22T08:31:31;98886.78;;;35.54;37.46
46412;BME280;32113;42.012;24.870;2023-07-22T08:33:57;98875.75;;;35.57;37.38
46412;BME280;32113;42.012;24.870;2023-07-22T08:36:22;98864.53;;;35.62;37.50
46412;BME280;32113;42.012;24.870;2023-07-22T08:38:47;98861.88;;;35.77;38.06
46412;BME280;32113;42.012;24.870;2023-07-22T08:41:15;98861.88;;;35.77;36.87
46412;BME280;32113;42.012;24.870;2023-07-22T08:43:44;98861.44;;;35.88;37.34
46412;BME280;32113;42.012;24.870;2023-07-22T08:46:10;98859.38;;;36.06;36.82
46412;BME280;32113;42.012;24.870;2023-07-22T08:48:36;98854.59;;;36.16;36.25
46412;BME280;32113;42.012;24.870;2023-07-22T08:51:13;98857.22;;;36.31;35.97
46412;BME280;32113;42.012;24.870;2023-07-22T08:53:41;98852.16;;;36.36;35.67
46412;BME280;32113;42.012;24.870;2023-07-22T08:56:06;98853.69;;;36.46;36.03
46412;BME280;32113;42.012;24.870;2023-07-22T08:58:32;98845.16;;;36.57;35.84
46412;BME280;32113;42.012;24.870;2023-07-22T09:00:59;98848.16;;;36.69;34.79
46412;BME280;32113;42.012;24.870;2023-07-22T09:03:24;98843.50;;;36.56;35.02
46412;BME280;32113;42.012;24.870;2023-07-22T09:05:50;98852.53;;;36.55;35.14
46412;BME280;32113;42.012;24.870;2023-07-22T09:08:15;98851.16;;;36.59;35.07
46412;BME280;32113;42.012;24.870;2023-07-22T09:10:42;98846.63;;;36.38;35.16
46412;BME280;32113;42.012;24.870;2023-07-22T09:13:08;98843.63;;;36.48;34.46
46412;BME280;32113;42.012;24.870;2023-07-22T09:15:36;98852.91;;;36.52;34.81
46412;BME280;32113;42.012;24.870;2023-07-22T09:18:05;98841.66;;;36.57;35.07
46412;BME280;32113;42.012;24.870;2023-07-22T09:20:30;98841.22;;;36.31;34.68
46412;BME280;32113;42.012;24.870;2023-07-22T09:22:56;98840.03;;;36.19;35.77
46412;BME280;32113;42.012;24.870;2023-07-22T09:25:22;98839.28;;;36.25;35.38
46412;BME280;32113;42.012;24.870;2023-07-22T09:27:49;98836.50;;;36.33;35.25
46412;BME280;32113;42.012;24.870;2023-07-22T09:32:52;98828.38;;;36.85;35.42
46412;BME280;32113;42.012;24.870;2023-07-22T09:35:18;98832.66;;;37.08;35.83
46412;BME280;32113;42.012;24.870;2023-07-22T09:37:44;98820.91;;;37.31;34.02
46412;BME280;32113;42.012;24.870;2023-07-22T09:42:45;98813.81;;;37.52;33.85
46412;BME280;32113;42.012;24.870;2023-07-22T09:45:10;98814.34;;;37.62;33.04
46412;BME280;32113;42.012;24.870;2023-07-22T09:47:42;98810.97;;;37.60;32.79
46412;BME280;32113;42.012;24.870;2023-07-22T09:50:10;98804.88;;;37.73;32.38
46412;BME280;32113;42.012;24.870;2023-07-22T09:52:40;98802.72;;;37.90;33.45
46412;BME280;32113;42.012;24.870;2023-07-22T09:55:06;98794.69;;;37.90;32.14
46412;BME280;32113;42.012;24.870;2023-07-22T09:57:31;98793.69;;;38.05;32.34
46412;BME280;32113;42.012;24.870;2023-07-22T09:59:58;98793.75;;;38.18;32.57
46412;BME280;32113;42.012;24.870;2023-07-22T10:02:24;98791.28;;;38.30;31.57
46412;BME280;32113;42.012;24.870;2023-07-22T10:04:50;98785.50;;;38.33;31.38
46412;BME280;32113;42.012;24.870;2023-07-22T10:07:16;98778.53;;;38.46;31.45
46412;BME280;32113;42.012;24.870;2023-07-22T10:09:43;98772.34;;;38.52;31.85
46412;BME280;32113;42.012;24.870;2023-07-22T10:12:09;98771.13;;;38.61;31.02
46412;BME280;32113;42.012;24.870;2023-07-22T10:14:35;98765.16;;;38.59;31.66
46412;BME280;32113;42.012;24.870;2023-07-22T10:17:00;98764.72;;;38.69;31.70
46412;BME280;32113;42.012;24.870;2023-07-22T10:19:25;98761.25;;;38.69;31.43
46412;BME280;32113;42.012;24.870;2023-07-22T10:21:51;98754.41;;;38.53;31.25
46412;BME280;32113;42.012;24.870;2023-07-22T10:24:17;98751.72;;;38.25;31.89
46412;BME280;32113;42.012;24.870;2023-07-22T10:26:43;98746.97;;;38.34;31.24
46412;BME280;32113;42.012;24.870;2023-07-22T10:29:10;98746.59;;;38.51;31.47
46412;BME280;32113;42.012;24.870;2023-07-22T10:31:36;98741.25;;;38.58;31.23
46412;BME280;32113;42.012;24.870;2023-07-22T10:34:02;98741.25;;;38.71;31.37
46412;BME280;32113;42.012;24.870;2023-07-22T10:36:29;98740.22;;;38.66;30.57
46412;BME280;32113;42.012;24.870;2023-07-22T10:38:55;98733.63;;;38.68;30.60
46412;BME280;32113;42.012;24.870;2023-07-22T10:41:21;98735.88;;;38.85;30.18
46412;BME280;32113;42.012;24.870;2023-07-22T10:43:53;98732.56;;;38.69;30.57
46412;BME280;32113;42.012;24.870;2023-07-22T10:46:30;98734.44;;;38.82;31.33
46412;BME280;32113;42.012;24.870;2023-07-22T10:48:59;98739.34;;;38.92;30.46
46412;BME280;32113;42.012;24.870;2023-07-22T10:51:35;98733.16;;;38.98;30.39
46412;BME280;32113;42.012;24.870;2023-07-22T10:54:00;98728.03;;;39.03;30.12
46412;BME280;32113;42.012;24.870;2023-07-22T10:56:26;98732.94;;;39.07;29.02
46412;BME280;32113;42.012;24.870;2023-07-22T11:06:33;98713.78;;;39.62;28.72
46412;BME280;32113;42.012;24.870;2023-07-22T11:08:59;98718.66;;;39.72;29.67
46412;BME280;32113;42.012;24.870;2023-07-22T11:16:41;98697.03;;;39.67;26.80
46412;BME280;32113;42.012;24.870;2023-07-22T11:19:07;98703.03;;;39.69;27.91
46412;BME280;32113;42.012;24.870;2023-07-22T11:21:32;98705.06;;;39.67;28.02
46412;BME280;32113;42.012;24.870;2023-07-22T11:23:57;98700.50;;;39.74;27.28
46412;BME280;32113;42.012;24.870;2023-07-22T11:26:22;98690.75;;;39.80;27.40
46412;BME280;32113;42.012;24.870;2023-07-22T11:28:48;98684.75;;;39.85;27.77
46412;BME280;32113;42.012;24.870;2023-07-22T11:31:13;98681.84;;;39.86;27.96
46412;BME280;32113;42.012;24.870;2023-07-22T11:33:41;98680.56;;;39.96;28.26
46412;BME280;32113;42.012;24.870;2023-07-22T11:36:09;98678.47;;;39.98;27.04
46412;BME280;32113;42.012;24.870;2023-07-22T11:38:34;98677.06;;;39.88;25.90
46412;BME280;32113;42.012;24.870;2023-07-22T11:40:59;98673.13;;;39.91;26.35
46412;BME280;32113;42.012;24.870;2023-07-22T11:43:25;98659.69;;;39.91;25.84
46412;BME280;32113;42.012;24.870;2023-07-22T11:45:51;98667.22;;;39.82;26.47
46412;BME280;32113;42.012;24.870;2023-07-22T11:48:16;98655.47;;;39.76;26.15
46412;BME280;32113;42.012;24.870;2023-07-22T11:50:42;98659.38;;;39.80;26.23
46412;BME280;32113;42.012;24.870;2023-07-22T11:53:07;98655.03;;;39.79;24.44
46412;BME280;32113;42.012;24.870;2023-07-22T11:55:34;98647.59;;;39.81;24.36
46412;BME280;32113;42.012;24.870;2023-07-22T11:57:59;98648.78;;;39.86;23.85
46412;BME280;32113;42.012;24.870;2023-07-22T12:00:25;98646.72;;;39.88;24.45
46412;BME280;32113;42.012;24.870;2023-07-22T12:02:50;98644.63;;;39.97;24.62
46412;BME280;32113;42.012;24.870;2023-07-22T12:05:21;98643.94;;;40.01;23.05
46412;BME280;32113;42.012;24.870;2023-07-22T12:07:47;98639.94;;;40.11;23.26
46412;BME280;32113;42.012;24.870;2023-07-22T12:10:12;98634.72;;;40.16;24.34
46412;BME280;32113;42.012;24.870;2023-07-22T12:12:45;98632.88;;;40.16;24.23
46412;BME280;32113;42.012;24.870;2023-07-22T12:17:53;98636.94;;;40.26;24.42
46412;BME280;32113;42.012;24.870;2023-07-22T12:20:24;98628.38;;;40.36;24.60
46412;BME280;32113;42.012;24.870;2023-07-22T12:22:50;98633.03;;;40.47;23.44
46412;BME280;32113;42.012;24.870;2023-07-22T12:25:16;98626.97;;;40.33;23.16
46412;BME280;32113;42.012;24.870;2023-07-22T12:27:41;98626.13;;;40.32;23.96
46412;BME280;32113;42.012;24.870;2023-07-22T12:30:06;98623.59;;;40.38;23.62
46412;BME280;32113;42.012;24.870;2023-07-22T12:32:32;98622.72;;;40.44;23.88
46412;BME280;32113;42.012;24.870;2023-07-22T12:34:58;98617.97;;;40.46;23.81
46412;BME280;32113;42.012;24.870;2023-07-22T12:37:23;98621.03;;;40.50;23.93
46412;BME280;32113;42.012;24.870;2023-07-22T12:39:48;98625.81;;;40.48;22.86
46412;BME280;32113;42.012;24.870;2023-07-22T12:42:13;98619.44;;;40.42;22.96
46412;BME280;32113;42.012;24.870;2023-07-22T12:44:39;98627.31;;;40.37;23.09
46412;BME280;32113;42.012;24.870;2023-07-22T12:47:04;98614.66;;;40.44;23.49
46412;BME280;32113;42.012;24.870;2023-07-22T12:49:29;98622.72;;;40.44;23.74
46412;BME280;32113;42.012;24.870;2023-07-22T12:51:55;98618.84;;;40.40;23.80
46412;BME280;32113;42.012;24.870;2023-07-22T12:54:20;98621.53;;;40.40;23.66
46412;BME280;32113;42.012;24.870;2023-07-22T12:56:45;98621.31;;;40.41;23.91
46412;BME280;32113;42.012;24.870;2023-07-22T12:59:11;98613.28;;;40.34;23.49
46412;BME280;32113;42.012;24.870;2023-07-22T13:01:36;98620.50;;;40.41;24.23
46412;BME280;32113;42.012;24.870;2023-07-22T13:04:04;98612.63;;;40.39;24.05
46412;BME280;32113;42.012;24.870;2023-07-22T13:06:29;98603.72;;;40.39;23.39